sensor_id;sensor_type;location;lat;lon;timestamp;pressure;altitude;pressure_sealevel;temperature;humidity
14885;BME280;7534;50.762;7.000;2022-08-19T00:01:36;151743.13;;;21.36;69.23
14885;BME280;7534;50.762;7.000;2022-08-19T00:04:07;151728.59;;;21.30;69.20
14885;BME280;7534;50.762;7.000;2022-08-19T00:06:36;151745.75;;;21.37;69.32
14885;BME280;7534;50.762;7.000;2022-08-19T00:09:05;151704.84;;;21.21;69.73
14885;BME280;7534;50.762;7.000;2022-08-19T00:11:32;151682.34;;;21.12;69.89
14885;BME280;7534;50.762;7.000;2022-08-19T00:13:59;151702.19;;;21.20;70.20
14885;BME280;7534;50.762;7.000;2022-08-19T00:16:25;151688.97;;;21.15;70.35
14885;BME280;7534;50.762;7.000;2022-08-19T00:18:51;151611.03;;;20.85;71.21
14885;BME280;7534;50.762;7.000;2022-08-19T00:21:17;151603.16;;;20.82;71.90
14885;BME280;7534;50.762;7.000;2022-08-19T00:23:43;151593.88;;;20.78;71.78
14885;BME280;7534;50.762;7.000;2022-08-19T00:26:10;151609.72;;;20.84;72.11
14885;BME280;7534;50.762;7.000;2022-08-19T00:28:36;151586.00;;;20.75;72.46
14885;BME280;7534;50.762;7.000;2022-08-19T00:31:04;151587.28;;;20.76;72.30
14885;BME280;7534;50.762;7.000;2022-08-19T00:33:31;151617.66;;;20.87;72.31
14885;BME280;7534;50.762;7.000;2022-08-19T00:36:04;151611.03;;;20.85;72.61
14885;BME280;7534;50.762;7.000;2022-08-19T00:38:33;151600.50;;;20.81;72.68
14885;BME280;7534;50.762;7.000;2022-08-19T00:41:00;151568.81;;;20.69;72.81
14885;BME280;7534;50.762;7.000;2022-08-19T00:43:27;151596.53;;;20.79;73.08
14885;BME280;7534;50.762;7.000;2022-08-19T00:45:54;151592.56;;;20.78;73.15
14885;BME280;7534;50.762;7.000;2022-08-19T00:48:21;151572.78;;;20.70;73.37
14885;BME280;7534;50.762;7.000;2022-08-19T00:50:50;151506.78;;;20.45;73.80
14885;BME280;7534;50.762;7.000;2022-08-19T00:53:23;151551.66;;;20.62;74.12
14885;BME280;7534;50.762;7.000;2022-08-19T00:55:56;151549.00;;;20.61;74.08
14885;BME280;7534;50.762;7.000;2022-08-19T00:58:29;151537.16;;;20.56;74.41
14885;BME280;7534;50.762;7.000;2022-08-19T01:00:56;151535.84;;;20.56;74.11
14885;BME280;7534;50.762;7.000;2022-08-19T01:03:22;151563.56;;;20.67;73.89
14885;BME280;7534;50.762;7.000;2022-08-19T01:05:51;151562.25;;;20.66;73.86
14885;BME280;7534;50.762;7.000;2022-08-19T01:08:20;151526.56;;;20.52;74.45
14885;BME280;7534;50.762;7.000;2022-08-19T01:10:52;151489.66;;;20.38;75.05
14885;BME280;7534;50.762;7.000;2022-08-19T01:13:23;151498.91;;;20.42;74.87
14885;BME280;7534;50.762;7.000;2022-08-19T01:16:07;151498.91;;;20.42;75.18
14885;BME280;7534;50.762;7.000;2022-08-19T01:18:40;151502.81;;;20.43;74.88
14885;BME280;7534;50.762;7.000;2022-08-19T01:21:40;151512.06;;;20.47;74.73
14885;BME280;7534;50.762;7.000;2022-08-19T01:24:07;151451.34;;;20.24;75.15
14885;BME280;7534;50.762;7.000;2022-08-19T01:26:40;151469.81;;;20.31;75.44
14885;BME280;7534;50.762;7.000;2022-08-19T01:29:07;151471.13;;;20.31;75.36
14885;BME280;7534;50.762;7.000;2022-08-19T01:31:34;151454.00;;;20.25;75.80
14885;BME280;7534;50.762;7.000;2022-08-19T01:34:02;151394.63;;;20.02;75.87
14885;BME280;7534;50.762;7.000;2022-08-19T01:36:41;151422.31;;;20.12;76.07
14885;BME280;7534;50.762;7.000;2022-08-19T01:39:11;151434.19;;;20.17;76.00
14885;BME280;7534;50.762;7.000;2022-08-19T01:41:37;151352.44;;;19.86;76.52
14885;BME280;7534;50.762;7.000;2022-08-19T01:44:06;151372.22;;;19.93;76.74
14885;BME280;7534;50.762;7.000;2022-08-19T01:46:32;151360.31;;;19.89;77.04
14885;BME280;7534;50.762;7.000;2022-08-19T01:48:59;151411.78;;;20.08;77.17
14885;BME280;7534;50.762;7.000;2022-08-19T01:51:24;151403.84;;;20.05;76.99
14885;BME280;7534;50.762;7.000;2022-08-19T01:53:51;151370.88;;;19.93;77.58
14885;BME280;7534;50.762;7.000;2022-08-19T01:56:18;151369.56;;;19.92;77.84
14885;BME280;7534;50.762;7.000;2022-08-19T01:58:55;151328.69;;;19.76;78.11
14885;BME280;7534;50.762;7.000;2022-08-19T02:01:23;151324.72;;;19.75;78.11
14885;BME280;7534;50.762;7.000;2022-08-19T02:03:49;151312.81;;;19.70;78.54
14885;BME280;7534;50.762;7.000;2022-08-19T02:06:14;151355.03;;;19.87;78.27
14885;BME280;7534;50.762;7.000;2022-08-19T02:08:43;151376.13;;;19.95;78.01
14885;BME280;7534;50.762;7.000;2022-08-19T02:11:25;151368.25;;;19.92;77.72
14885;BME280;7534;50.762;7.000;2022-08-19T02:13:53;151399.88;;;20.04;77.20
14885;BME280;7534;50.762;7.000;2022-08-19T02:16:20;151397.22;;;20.03;77.13
14885;BME280;7534;50.762;7.000;2022-08-19T02:18:48;151378.78;;;19.96;77.77
14885;BME280;7534;50.762;7.000;2022-08-19T02:21:19;151347.16;;;19.84;77.78
14885;BME280;7534;50.762;7.000;2022-08-19T02:23:45;151380.09;;;19.96;78.22
14885;BME280;7534;50.762;7.000;2022-08-19T02:26:12;151389.34;;;20.00;78.43
14885;BME280;7534;50.762;7.000;2022-08-19T02:28:40;151382.72;;;19.97;78.59
14885;BME280;7534;50.762;7.000;2022-08-19T02:31:11;151362.94;;;19.90;78.60
14885;BME280;7534;50.762;7.000;2022-08-19T02:33:37;151369.56;;;19.92;78.40
14885;BME280;7534;50.762;7.000;2022-08-19T02:36:05;151330.00;;;19.77;78.83
14885;BME280;7534;50.762;7.000;2022-08-19T02:38:31;151315.47;;;19.71;79.32
14885;BME280;7534;50.762;7.000;2022-08-19T02:41:02;151324.72;;;19.75;79.47
14885;BME280;7534;50.762;7.000;2022-08-19T02:43:31;151306.25;;;19.68;79.51
14885;BME280;7534;50.762;7.000;2022-08-19T02:45:57;151302.28;;;19.66;80.29
14885;BME280;7534;50.762;7.000;2022-08-19T02:48:25;151286.47;;;19.60;81.00
14885;BME280;7534;50.762;7.000;2022-08-19T02:50:52;151266.72;;;19.53;80.76
14885;BME280;7534;50.762;7.000;2022-08-19T02:53:26;151286.47;;;19.60;80.93
14885;BME280;7534;50.762;7.000;2022-08-19T02:55:52;151274.59;;;19.56;81.18
14885;BME280;7534;50.762;7.000;2022-08-19T02:58:21;151244.25;;;19.44;81.31
14885;BME280;7534;50.762;7.000;2022-08-19T03:00:54;151283.84;;;19.59;81.27
14885;BME280;7534;50.762;7.000;2022-08-19T03:03:20;151277.22;;;19.57;81.55
14885;BME280;7534;50.762;7.000;2022-08-19T03:05:47;151269.34;;;19.54;81.34
14885;BME280;7534;50.762;7.000;2022-08-19T03:08:13;151271.94;;;19.55;81.42
14885;BME280;7534;50.762;7.000;2022-08-19T03:10:45;151261.44;;;19.51;81.51
14885;BME280;7534;50.762;7.000;2022-08-19T03:13:14;151265.38;;;19.52;81.42
14885;BME280;7534;50.762;7.000;2022-08-19T03:15:47;151274.59;;;19.56;81.47
14885;BME280;7534;50.762;7.000;2022-08-19T03:18:15;151265.38;;;19.52;81.65
14885;BME280;7534;50.762;7.000;2022-08-19T03:20:51;151241.59;;;19.43;82.04
14885;BME280;7534;50.762;7.000;2022-08-19T03:23:22;151257.47;;;19.49;81.98
14885;BME280;7534;50.762;7.000;2022-08-19T03:25:51;151268.03;;;19.53;81.83
14885;BME280;7534;50.762;7.000;2022-08-19T03:28:17;151282.53;;;19.59;81.70
14885;BME280;7534;50.762;7.000;2022-08-19T03:30:57;151293.03;;;19.63;81.33
14885;BME280;7534;50.762;7.000;2022-08-19T03:33:24;151264.06;;;19.52;81.22
14885;BME280;7534;50.762;7.000;2022-08-19T03:36:01;151294.38;;;19.63;81.28
14885;BME280;7534;50.762;7.000;2022-08-19T03:38:28;151269.34;;;19.54;81.86
14885;BME280;7534;50.762;7.000;2022-08-19T03:40:54;151257.47;;;19.49;81.72
14885;BME280;7534;50.762;7.000;2022-08-19T03:43:19;151269.34;;;19.54;81.72
14885;BME280;7534;50.762;7.000;2022-08-19T03:45:45;151275.91;;;19.56;82.11
14885;BME280;7534;50.762;7.000;2022-08-19T03:48:11;151246.88;;;19.45;82.45
14885;BME280;7534;50.762;7.000;2022-08-19T03:50:40;151245.56;;;19.44;82.71
14885;BME280;7534;50.762;7.000;2022-08-19T03:53:06;151216.53;;;19.33;82.86
14885;BME280;7534;50.762;7.000;2022-08-19T03:55:39;151235.00;;;19.40;83.25
14885;BME280;7534;50.762;7.000;2022-08-19T03:58:05;151203.38;;;19.28;83.27
14885;BME280;7534;50.762;7.000;2022-08-19T04:00:32;151211.25;;;19.31;83.75
14885;BME280;7534;50.762;7.000;2022-08-19T04:02:59;151200.72;;;19.27;83.81
14885;BME280;7534;50.762;7.000;2022-08-19T04:05:28;151184.94;;;19.21;84.11
14885;BME280;7534;50.762;7.000;2022-08-19T04:10:22;151190.16;;;19.23;85.10
14885;BME280;7534;50.762;7.000;2022-08-19T04:12:49;151186.19;;;19.22;85.36
14885;BME280;7534;50.762;7.000;2022-08-19T04:15:15;151178.31;;;19.19;85.92
14885;BME280;7534;50.762;7.000;2022-08-19T04:17:41;151191.50;;;19.24;85.64
14885;BME280;7534;50.762;7.000;2022-08-19T04:20:07;151204.69;;;19.29;85.52
14885;BME280;7534;50.762;7.000;2022-08-19T04:22:32;151198.09;;;19.26;85.43
14885;BME280;7534;50.762;7.000;2022-08-19T04:24:58;151199.41;;;19.27;85.41
14885;BME280;7534;50.762;7.000;2022-08-19T04:27:24;151171.72;;;19.16;85.81
14885;BME280;7534;50.762;7.000;2022-08-19T04:29:49;151166.44;;;19.14;86.17
14885;BME280;7534;50.762;7.000;2022-08-19T04:32:15;151175.69;;;19.18;86.33
14885;BME280;7534;50.762;7.000;2022-08-19T04:34:41;151186.19;;;19.22;85.80
14885;BME280;7534;50.762;7.000;2022-08-19T04:37:08;151179.66;;;19.19;86.22
14885;BME280;7534;50.762;7.000;2022-08-19T04:39:37;151166.44;;;19.14;86.74
14885;BME280;7534;50.762;7.000;2022-08-19T04:42:21;151157.22;;;19.11;86.79
14885;BME280;7534;50.762;7.000;2022-08-19T04:45:13;151166.44;;;19.14;86.50
14885;BME280;7534;50.762;7.000;2022-08-19T04:47:43;151187.53;;;19.22;86.29
14885;BME280;7534;50.762;7.000;2022-08-19T04:50:10;151188.84;;;19.23;86.09
14885;BME280;7534;50.762;7.000;2022-08-19T04:52:38;151184.94;;;19.21;86.10
14885;BME280;7534;50.762;7.000;2022-08-19T04:55:09;151206.03;;;19.29;85.64
14885;BME280;7534;50.762;7.000;2022-08-19T04:57:35;151195.44;;;19.25;85.90
14885;BME280;7534;50.762;7.000;2022-08-19T05:00:10;151208.63;;;19.30;85.66
14885;BME280;7534;50.762;7.000;2022-08-19T05:02:37;151227.13;;;19.37;85.32
14885;BME280;7534;50.762;7.000;2022-08-19T05:05:04;151236.31;;;19.41;85.37
14885;BME280;7534;50.762;7.000;2022-08-19T05:07:31;151252.16;;;19.47;85.13
14885;BME280;7534;50.762;7.000;2022-08-19T05:09:57;151254.81;;;19.48;85.34
14885;BME280;7534;50.762;7.000;2022-08-19T05:12:23;151246.88;;;19.45;85.24
14885;BME280;7534;50.762;7.000;2022-08-19T05:14:49;151260.09;;;19.50;85.21
14885;BME280;7534;50.762;7.000;2022-08-19T05:17:15;151279.88;;;19.58;85.22
14885;BME280;7534;50.762;7.000;2022-08-19T05:19:40;151286.47;;;19.60;84.91
14885;BME280;7534;50.762;7.000;2022-08-19T05:22:24;151316.78;;;19.72;85.00
14885;BME280;7534;50.762;7.000;2022-08-19T05:25:10;151336.56;;;19.79;84.75
14885;BME280;7534;50.762;7.000;2022-08-19T05:27:37;151340.53;;;19.81;84.18
14885;BME280;7534;50.762;7.000;2022-08-19T05:30:04;151355.03;;;19.87;83.93
14885;BME280;7534;50.762;7.000;2022-08-19T05:32:31;151377.44;;;19.95;83.70
14885;BME280;7534;50.762;7.000;2022-08-19T05:34:56;151393.31;;;20.01;83.34
14885;BME280;7534;50.762;7.000;2022-08-19T05:37:22;151405.16;;;20.06;82.96
14885;BME280;7534;50.762;7.000;2022-08-19T05:39:48;151420.97;;;20.12;82.50
14885;BME280;7534;50.762;7.000;2022-08-19T05:42:15;151430.25;;;20.15;82.41
14885;BME280;7534;50.762;7.000;2022-08-19T05:44:43;151448.69;;;20.23;82.42
14885;BME280;7534;50.762;7.000;2022-08-19T05:47:12;151461.88;;;20.28;82.31
14885;BME280;7534;50.762;7.000;2022-08-19T05:49:38;151459.28;;;20.27;82.16
14885;BME280;7534;50.762;7.000;2022-08-19T05:52:09;151487.00;;;20.37;82.19
14885;BME280;7534;50.762;7.000;2022-08-19T05:54:38;151501.53;;;20.43;81.61
14885;BME280;7534;50.762;7.000;2022-08-19T05:57:07;151521.34;;;20.50;81.40
14885;BME280;7534;50.762;7.000;2022-08-19T05:59:34;151541.13;;;20.58;81.08
14885;BME280;7534;50.762;7.000;2022-08-19T06:02:04;151537.16;;;20.56;81.15
14885;BME280;7534;50.762;7.000;2022-08-19T06:04:30;151542.44;;;20.59;81.22
14885;BME280;7534;50.762;7.000;2022-08-19T06:06:56;151541.13;;;20.58;81.34
14885;BME280;7534;50.762;7.000;2022-08-19T06:09:22;151558.28;;;20.65;81.25
14885;BME280;7534;50.762;7.000;2022-08-19T06:11:54;151580.72;;;20.73;81.39
14885;BME280;7534;50.762;7.000;2022-08-19T06:14:29;151587.28;;;20.76;81.09
14885;BME280;7534;50.762;7.000;2022-08-19T06:16:56;151615.00;;;20.86;80.66
14885;BME280;7534;50.762;7.000;2022-08-19T06:19:23;151649.34;;;21.00;80.58
14885;BME280;7534;50.762;7.000;2022-08-19T06:21:53;151718.03;;;21.26;79.01
14885;BME280;7534;50.762;7.000;2022-08-19T06:24:25;151715.38;;;21.25;78.64
14885;BME280;7534;50.762;7.000;2022-08-19T06:26:53;151715.38;;;21.25;78.53
14885;BME280;7534;50.762;7.000;2022-08-19T06:29:24;151720.66;;;21.27;78.10
14885;BME280;7534;50.762;7.000;2022-08-19T06:31:54;151729.94;;;21.30;78.07
14885;BME280;7534;50.762;7.000;2022-08-19T06:34:21;151739.16;;;21.34;78.06
14885;BME280;7534;50.762;7.000;2022-08-19T06:36:50;151769.53;;;21.46;77.21
14885;BME280;7534;50.762;7.000;2022-08-19T06:39:21;151805.19;;;21.59;76.97
14885;BME280;7534;50.762;7.000;2022-08-19T06:41:52;151844.78;;;21.75;76.10
14885;BME280;7534;50.762;7.000;2022-08-19T06:44:22;151900.31;;;21.96;75.15
14885;BME280;7534;50.762;7.000;2022-08-19T06:46:49;151949.19;;;22.15;74.73
14885;BME280;7534;50.762;7.000;2022-08-19T06:49:16;152053.59;;;22.55;72.66
14885;BME280;7534;50.762;7.000;2022-08-19T06:51:45;152188.50;;;23.06;70.45
14885;BME280;7534;50.762;7.000;2022-08-19T06:54:13;152341.94;;;23.65;68.44
14885;BME280;7534;50.762;7.000;2022-08-19T06:56:41;152578.84;;;24.56;64.92
14885;BME280;7534;50.762;7.000;2022-08-19T06:59:17;152790.75;;;25.37;61.39
14885;BME280;7534;50.762;7.000;2022-08-19T07:01:47;153000.13;;;26.17;58.90
14885;BME280;7534;50.762;7.000;2022-08-19T07:04:22;153145.97;;;26.73;55.79
14885;BME280;7534;50.762;7.000;2022-08-19T07:06:49;153279.94;;;27.24;54.15
14885;BME280;7534;50.762;7.000;2022-08-19T07:09:17;153362.22;;;27.55;52.93
14885;BME280;7534;50.762;7.000;2022-08-19T07:11:49;153413.94;;;27.75;51.85
14885;BME280;7534;50.762;7.000;2022-08-19T07:14:19;153278.63;;;27.23;52.95
14885;BME280;7534;50.762;7.000;2022-08-19T07:16:49;153404.66;;;27.71;52.05
14885;BME280;7534;50.762;7.000;2022-08-19T07:19:17;153456.38;;;27.91;50.97
14885;BME280;7534;50.762;7.000;2022-08-19T07:21:43;153431.16;;;27.82;51.22
14885;BME280;7534;50.762;7.000;2022-08-19T07:24:08;153315.72;;;27.38;52.25
14885;BME280;7534;50.762;7.000;2022-08-19T07:26:41;153378.13;;;27.61;51.80
14885;BME280;7534;50.762;7.000;2022-08-19T07:29:08;153488.25;;;28.03;51.00
14885;BME280;7534;50.762;7.000;2022-08-19T07:31:35;153627.63;;;28.57;49.67
14885;BME280;7534;50.762;7.000;2022-08-19T07:34:08;153715.31;;;28.90;48.64
14885;BME280;7534;50.762;7.000;2022-08-19T07:36:37;153741.88;;;29.00;47.71
14885;BME280;7534;50.762;7.000;2022-08-19T07:39:10;153775.06;;;29.13;47.37
14885;BME280;7534;50.762;7.000;2022-08-19T07:41:37;153820.22;;;29.30;47.45
14885;BME280;7534;50.762;7.000;2022-08-19T07:44:04;153882.69;;;29.54;45.97
14885;BME280;7534;50.762;7.000;2022-08-19T07:46:36;154012.94;;;30.04;44.41
14885;BME280;7534;50.762;7.000;2022-08-19T07:49:06;153998.34;;;29.98;44.38
14885;BME280;7534;50.762;7.000;2022-08-19T07:51:33;154055.47;;;30.20;44.13
14885;BME280;7534;50.762;7.000;2022-08-19T07:53:59;154233.66;;;30.88;42.43
14885;BME280;7534;50.762;7.000;2022-08-19T07:56:26;154173.78;;;30.65;42.73
14885;BME280;7534;50.762;7.000;2022-08-19T07:58:52;154245.59;;;30.92;42.17
14885;BME280;7534;50.762;7.000;2022-08-19T08:01:23;154423.88;;;31.60;41.07
14885;BME280;7534;50.762;7.000;2022-08-19T08:03:52;154489.13;;;31.85;39.80
14885;BME280;7534;50.762;7.000;2022-08-19T08:06:37;154450.50;;;31.70;39.65
14885;BME280;7534;50.762;7.000;2022-08-19T08:09:36;154453.16;;;31.71;40.66
14885;BME280;7534;50.762;7.000;2022-08-19T08:12:21;154523.69;;;31.98;39.25
14885;BME280;7534;50.762;7.000;2022-08-19T08:14:53;154612.91;;;32.32;38.90
14885;BME280;7534;50.762;7.000;2022-08-19T08:17:25;154646.16;;;32.45;39.00
14885;BME280;7534;50.762;7.000;2022-08-19T08:19:51;154727.38;;;32.76;38.05
14885;BME280;7534;50.762;7.000;2022-08-19T08:22:21;154683.47;;;32.59;37.98
14885;BME280;7534;50.762;7.000;2022-08-19T08:25:13;154611.56;;;32.32;38.85
14885;BME280;7534;50.762;7.000;2022-08-19T08:27:42;154544.97;;;32.06;39.60
14885;BME280;7534;50.762;7.000;2022-08-19T08:30:15;154696.75;;;32.64;39.09
14885;BME280;7534;50.762;7.000;2022-08-19T08:32:42;154893.91;;;33.39;37.65
14885;BME280;7534;50.762;7.000;2022-08-19T08:35:13;154832.63;;;33.16;37.22
14885;BME280;7534;50.762;7.000;2022-08-19T08:37:39;154792.63;;;33.01;37.35
14885;BME280;7534;50.762;7.000;2022-08-19T08:40:35;154800.63;;;33.04;37.89
14885;BME280;7534;50.762;7.000;2022-08-19T08:45:45;154968.47;;;33.67;36.38
14885;BME280;7534;50.762;7.000;2022-08-19T08:48:27;155061.78;;;34.03;35.61
14885;BME280;7534;50.762;7.000;2022-08-19T08:50:57;155249.78;;;34.74;34.64
14885;BME280;7534;50.762;7.000;2022-08-19T08:53:25;155341.78;;;35.09;33.79
14885;BME280;7534;50.762;7.000;2022-08-19T08:55:51;155675.34;;;36.36;32.24
14885;BME280;7534;50.762;7.000;2022-08-19T08:58:27;155906.31;;;37.24;30.53
14885;BME280;7534;50.762;7.000;2022-08-19T09:00:54;156054.56;;;37.80;29.65
14885;BME280;7534;50.762;7.000;2022-08-19T09:03:26;155959.75;;;37.44;29.77
14885;BME280;7534;50.762;7.000;2022-08-19T09:06:07;156092.00;;;37.94;29.57
14885;BME280;7534;50.762;7.000;2022-08-19T09:08:43;155977.09;;;37.51;29.52
14885;BME280;7534;50.762;7.000;2022-08-19T09:14:43;155738.06;;;36.60;30.49
14885;BME280;7534;50.762;7.000;2022-08-19T09:17:14;155879.63;;;37.14;29.43
14885;BME280;7534;50.762;7.000;2022-08-19T09:20:00;155692.69;;;36.43;30.98
14885;BME280;7534;50.762;7.000;2022-08-19T09:22:29;155772.78;;;36.73;30.67
14885;BME280;7534;50.762;7.000;2022-08-19T09:24:55;155621.94;;;36.16;30.91
14885;BME280;7534;50.762;7.000;2022-08-19T09:27:23;155696.69;;;36.44;30.50
14885;BME280;7534;50.762;7.000;2022-08-19T09:29:50;155656.69;;;36.29;30.51
14885;BME280;7534;50.762;7.000;2022-08-19T09:32:16;155511.22;;;35.74;30.79
14885;BME280;7534;50.762;7.000;2022-08-19T09:34:43;155520.53;;;35.77;30.65
14885;BME280;7534;50.762;7.000;2022-08-19T09:37:09;155507.22;;;35.72;31.18
14885;BME280;7534;50.762;7.000;2022-08-19T09:39:35;155507.22;;;35.72;30.37
14885;BME280;7534;50.762;7.000;2022-08-19T09:42:02;155499.16;;;35.69;30.22
14885;BME280;7534;50.762;7.000;2022-08-19T09:44:29;155587.25;;;36.03;29.20
14885;BME280;7534;50.762;7.000;2022-08-19T09:46:55;155668.66;;;36.33;28.78
14885;BME280;7534;50.762;7.000;2022-08-19T09:49:21;155593.94;;;36.05;28.66
14885;BME280;7534;50.762;7.000;2022-08-19T09:51:52;155581.88;;;36.01;28.71
14885;BME280;7534;50.762;7.000;2022-08-19T09:54:20;155762.13;;;36.69;27.81
14885;BME280;7534;50.762;7.000;2022-08-19T09:56:46;155957.06;;;37.43;26.96
14885;BME280;7534;50.762;7.000;2022-08-19T09:59:11;155911.69;;;37.26;27.48
14885;BME280;7534;50.762;7.000;2022-08-19T10:01:38;155706.06;;;36.48;28.14
14885;BME280;7534;50.762;7.000;2022-08-19T10:04:04;155949.03;;;37.40;27.18
14885;BME280;7534;50.762;7.000;2022-08-19T10:06:37;156062.63;;;37.83;26.72
14885;BME280;7534;50.762;7.000;2022-08-19T10:09:06;156152.16;;;38.17;26.45
14885;BME280;7534;50.762;7.000;2022-08-19T10:11:34;155974.44;;;37.50;26.90
14885;BME280;7534;50.762;7.000;2022-08-19T10:14:02;155953.06;;;37.41;26.75
14885;BME280;7534;50.762;7.000;2022-08-19T10:16:28;155965.06;;;37.46;26.55
14885;BME280;7534;50.762;7.000;2022-08-19T10:18:54;155913.00;;;37.26;26.81
14885;BME280;7534;50.762;7.000;2022-08-19T10:21:28;155904.97;;;37.23;26.88
14885;BME280;7534;50.762;7.000;2022-08-19T10:24:00;155688.66;;;36.41;27.86
14885;BME280;7534;50.762;7.000;2022-08-19T10:26:30;155583.22;;;36.01;29.00
14885;BME280;7534;50.762;7.000;2022-08-19T10:28:57;155164.44;;;34.42;31.02
14885;BME280;7534;50.762;7.000;2022-08-19T10:31:28;155133.75;;;34.30;31.22
14885;BME280;7534;50.762;7.000;2022-08-19T10:33:55;155265.78;;;34.80;30.93
14885;BME280;7534;50.762;7.000;2022-08-19T10:36:35;155299.13;;;34.93;31.12
14885;BME280;7534;50.762;7.000;2022-08-19T10:39:07;155093.75;;;34.15;31.99
14885;BME280;7534;50.762;7.000;2022-08-19T10:41:37;155156.44;;;34.39;31.81
14885;BME280;7534;50.762;7.000;2022-08-19T10:44:10;155133.75;;;34.30;31.50
14885;BME280;7534;50.762;7.000;2022-08-19T10:46:40;154960.50;;;33.64;32.03
14885;BME280;7534;50.762;7.000;2022-08-19T10:49:09;154788.69;;;32.99;32.78
14885;BME280;7534;50.762;7.000;2022-08-19T10:51:38;154723.44;;;32.74;33.89
14885;BME280;7534;50.762;7.000;2022-08-19T10:54:23;154502.41;;;31.90;34.15
14885;BME280;7534;50.762;7.000;2022-08-19T10:57:09;154477.13;;;31.80;34.96
14885;BME280;7534;50.762;7.000;2022-08-19T10:59:35;154451.81;;;31.71;35.10
14885;BME280;7534;50.762;7.000;2022-08-19T11:02:05;154377.31;;;31.42;35.97
14885;BME280;7534;50.762;7.000;2022-08-19T11:04:31;154371.97;;;31.40;35.75
14885;BME280;7534;50.762;7.000;2022-08-19T11:06:58;154411.88;;;31.56;35.67
14885;BME280;7534;50.762;7.000;2022-08-19T11:09:25;154369.31;;;31.39;35.85
14885;BME280;7534;50.762;7.000;2022-08-19T11:11:55;154427.94;;;31.62;35.60
14885;BME280;7534;50.762;7.000;2022-08-19T11:14:23;154421.22;;;31.59;36.34
14885;BME280;7534;50.762;7.000;2022-08-19T11:16:51;154345.38;;;31.30;36.60
14885;BME280;7534;50.762;7.000;2022-08-19T11:19:17;154344.03;;;31.30;36.29
14885;BME280;7534;50.762;7.000;2022-08-19T11:21:47;154332.09;;;31.25;36.89
14885;BME280;7534;50.762;7.000;2022-08-19T11:24:20;154321.47;;;31.21;36.47
14885;BME280;7534;50.762;7.000;2022-08-19T11:26:50;154209.72;;;30.79;37.25
14885;BME280;7534;50.762;7.000;2022-08-19T11:29:21;154231.00;;;30.87;36.93
14885;BME280;7534;50.762;7.000;2022-08-19T11:31:51;154286.88;;;31.08;36.23
14885;BME280;7534;50.762;7.000;2022-08-19T11:34:21;154269.53;;;31.01;36.18
14885;BME280;7534;50.762;7.000;2022-08-19T11:36:50;154244.28;;;30.92;38.06
14885;BME280;7534;50.762;7.000;2022-08-19T11:39:20;154248.25;;;30.93;36.31
14885;BME280;7534;50.762;7.000;2022-08-19T11:41:46;154201.72;;;30.76;37.11
14885;BME280;7534;50.762;7.000;2022-08-19T11:44:12;154164.53;;;30.61;37.04
14885;BME280;7534;50.762;7.000;2022-08-19T11:46:42;154100.66;;;30.37;37.16
14885;BME280;7534;50.762;7.000;2022-08-19T11:49:11;154102.00;;;30.38;36.22
14885;BME280;7534;50.762;7.000;2022-08-19T11:51:37;154083.41;;;30.30;36.58
14885;BME280;7534;50.762;7.000;2022-08-19T11:54:05;154042.19;;;30.15;37.69
14885;BME280;7534;50.762;7.000;2022-08-19T11:56:32;153941.13;;;29.76;39.31
14885;BME280;7534;50.762;7.000;2022-08-19T11:58:57;153939.78;;;29.76;39.00
14885;BME280;7534;50.762;7.000;2022-08-19T12:01:25;153917.25;;;29.67;39.59
14885;BME280;7534;50.762;7.000;2022-08-19T12:03:54;153838.84;;;29.37;38.71
14885;BME280;7534;50.762;7.000;2022-08-19T12:06:24;153834.88;;;29.36;39.29
14885;BME280;7534;50.762;7.000;2022-08-19T12:08:52;153845.50;;;29.40;39.42
14885;BME280;7534;50.762;7.000;2022-08-19T12:11:19;153925.19;;;29.70;39.56
14885;BME280;7534;50.762;7.000;2022-08-19T12:13:45;154003.63;;;30.00;41.03
14885;BME280;7534;50.762;7.000;2022-08-19T12:16:27;153982.31;;;29.92;38.55
14885;BME280;7534;50.762;7.000;2022-08-19T12:18:54;153987.69;;;29.94;38.28
14885;BME280;7534;50.762;7.000;2022-08-19T12:21:24;154015.63;;;30.05;39.17
14885;BME280;7534;50.762;7.000;2022-08-19T12:23:53;154050.16;;;30.18;38.15
14885;BME280;7534;50.762;7.000;2022-08-19T12:26:20;154006.28;;;30.01;38.39
14885;BME280;7534;50.762;7.000;2022-08-19T12:28:46;153954.44;;;29.81;38.40
14885;BME280;7534;50.762;7.000;2022-08-19T12:31:12;153899.94;;;29.60;39.71
14885;BME280;7534;50.762;7.000;2022-08-19T12:33:39;153933.19;;;29.73;40.01
14885;BME280;7534;50.762;7.000;2022-08-19T12:36:10;153959.78;;;29.83;39.32
14885;BME280;7534;50.762;7.000;2022-08-19T12:38:37;153939.78;;;29.76;38.98
14885;BME280;7534;50.762;7.000;2022-08-19T12:41:04;153998.34;;;29.98;39.73
14885;BME280;7534;50.762;7.000;2022-08-19T12:43:30;154028.88;;;30.10;39.08
14885;BME280;7534;50.762;7.000;2022-08-19T12:45:56;154083.41;;;30.30;38.04
14885;BME280;7534;50.762;7.000;2022-08-19T12:48:22;154075.41;;;30.27;36.72
14885;BME280;7534;50.762;7.000;2022-08-19T12:50:47;153978.38;;;29.90;37.68
14885;BME280;7534;50.762;7.000;2022-08-19T12:53:14;154018.28;;;30.06;37.47
14885;BME280;7534;50.762;7.000;2022-08-19T12:55:41;154047.47;;;30.17;37.05
14885;BME280;7534;50.762;7.000;2022-08-19T12:58:09;154031.53;;;30.11;35.79
14885;BME280;7534;50.762;7.000;2022-08-19T13:00:35;154066.13;;;30.24;35.28
14885;BME280;7534;50.762;7.000;2022-08-19T13:03:01;154082.06;;;30.30;35.36
14885;BME280;7534;50.762;7.000;2022-08-19T13:05:31;154119.25;;;30.44;36.08
14885;BME280;7534;50.762;7.000;2022-08-19T13:07:59;154115.28;;;30.43;36.16
14885;BME280;7534;50.762;7.000;2022-08-19T13:10:33;154116.59;;;30.43;36.17
14885;BME280;7534;50.762;7.000;2022-08-19T13:13:06;154080.72;;;30.29;35.41
14885;BME280;7534;50.762;7.000;2022-08-19T13:15:38;154139.25;;;30.52;35.41
14885;BME280;7534;50.762;7.000;2022-08-19T13:18:08;154129.94;;;30.48;35.32
14885;BME280;7534;50.762;7.000;2022-08-19T13:20:36;154161.84;;;30.60;36.66